AirNav   Phillips 66 Aviation Fuel
 
 855 users online  

CL35 Warner Springs Gliderport
Warner Springs, California, USA

GOING TO WARNER SPRINGS?


FAA INFORMATION EFFECTIVE 03 JANUARY 2019

Location

FAA Identifier: CL35
Lat/Long: 33-17-04.2100N / 116-40-10.7650W
33-17.070167N / 116-40.179417W
33.2845028 / -116.6696569
(estimated)
Elevation: 2880 ft. / 878 m (estimated)
Variation: 13E (1985)
From city: 2 miles E of WARNER SPRINGS, CA
Time zone: UTC -8 (UTC -7 during Daylight Saving Time)
Zip code: 92086

Gliderport Operations

Gliderport use: Private use. Permission required prior to landing
Activation date: 10/1984
Control tower: no
ARTCC: LOS ANGELES CENTER
FSS: SAN DIEGO FLIGHT SERVICE STATION
Attendance: 0900-1700
Wind indicator: yes
Segmented circle: yes
Landing fee: yes

Gliderport Communications

UNICOM: 122.8
WX AWOS-3P at L08 (18 nm E): 126.575 (760-767-3308)
WX ASOS at RNM (19 nm SW): 132.025 (760-789-0736)

Nearby radio navigation aids

VOR radial/distance  VOR name  Freq  Var
JLIr319/9.6JULIAN VORTAC114.0015E
TRMr218/32.8THERMAL VORTAC116.2013E
PSPr186/37.1PALM SPRINGS VORTAC115.5013E
OCNr071/37.6OCEANSIDE VORTAC115.3015E
HDFr125/(39.2)HOMELAND VOR113.4014E

Gliderport Services

Runway Information

Runway 8/26

Dimensions: 3500 x 70 ft. / 1067 x 21 m
Surface: asphalt
RUNWAY 8  RUNWAY 26
Latitude: 33-17.060333N33-17.080000N
Longitude: 116-40.522667W116-39.836167W
Elevation: 2873.0 ft.2914.0 ft.
Traffic pattern: leftleft
Obstructions: none200 ft. hill, 5200 ft. from runway

Gliderport Ownership and Management from official FAA records

Ownership: Privately-owned
Owner: WARNER SPRINGS RANCH RESORT, LLC
31930 HWY 79
WARNER SPRINGS, CA 92086
Phone 760-782-4200
SKY SAILING 31930 HWY 79.
Manager: BRET WILLAT
SKY SAILING 31930 HWY 79
WARNER SPRINGS, CA 92086
Phone 760-782-0404
LEASEE.

Gliderport Operational Statistics

Aircraft based on the field: 80
Single engine airplanes: 10
Gliders airplanes: 70
    

Instrument Procedures

There are no published instrument procedures at CL35.

Some nearby airports with instrument procedures:

L08 - Borrego Valley Airport (18 nm E)
KRNM - Ramona Airport (19 nm SW)
F70 - French Valley Airport (29 nm NW)
L18 - Fallbrook Community Airpark (29 nm W)
KSEE - Gillespie Field Airport (31 nm SW)
 
Loc | Ops | Rwys | IFR | FBO | Links
Com | Nav | Svcs | Stats | Notes
Area around CL35 (Warner Springs Gliderport)
 
Road maps at: MapQuest Bing Google
 
Aerial photo
WARNING: Photo may not be current or correct
Aerial photo of CL35 (Warner Springs Gliderport)
Photo by Steve Lupinacci
Photo taken 27-May-2008

Do you have a better or more recent aerial photo of Warner Springs Gliderport that you would like to share? If so, please send us your photo.

 
Sectional chart

 
Airport distance calculator
Flying to Warner Springs Gliderport? Find the distance to fly.

From to CL35

Sunrise and sunset
Times for 21-Jan-2019
 Local
(UTC-8)
 Zulu
(UTC)
Morning civil twilight06:2314:23
Sunrise06:5014:50
Sunset17:0701:07
Evening civil twilight17:3301:33

Current date and time
Zulu (UTC)  22-Jan-2019 03:26:21
Local (UTC-8)  21-Jan-2019 19:26:21
 
METAR
KL08 
18nm E 
220315Z AUTO 32014G20KT 10SM CLR 15/M03 A2997 RMK AO2
KRNM 
20nm SW 
220253Z 00000KT 10SM FEW023 07/04 A3006 RMK AO2 SLP176 T00720039 53013
KF70 
29nm NW 
220315Z AUTO 14004KT 10SM CLR 09/03 A3005 RMK AO1
KL18 
29nm W 
220315Z AUTO 00000KT 10SM CLR 11/04 A3006 RMK AO2
KSEE 
32nm SW 
220247Z 00000KT 10SM FEW030 12/06 A3006
KCRQ 
32nm W 
220253Z VRB06KT 10SM CLR 14/09 A3005 RMK AO2 SLP174 T01440089 53012
KTRM 
33nm NE 
220252Z AUTO 33009KT 10SM CLR 17/M02 A2993 RMK AO2 SLP134 T01721022 53024 TSNO
KPSP 
33nm N 
220253Z 30009G18KT 10SM CLR 17/M04 A2995 RMK AO2 SLP144 T01671044 53023 $
KNFG 
33nm W 
220255Z AUTO 00000KT 10SM CLR 11/07 A3005 RMK AO2 SLP175 T01110067 53014 $
KNKX 
34nm SW 
220255Z 34004KT 10SM CLR 14/06 A3007 RMK AO2 SLP177 T01390061 53009 $
TAF
KCRQ 
32nm W 
211727Z 2118/2218 28008KT P6SM SCT030 FM211900 28011G18KT P6SM SCT030 FM220200 VRB05KT P6SM SKC FM221100 04007KT P6SM SKC
KTRM 
33nm NE 
220227Z 2202/2224 33011KT P6SM SKC FM220900 32012G20KT P6SM SKC FM221800 34010KT P6SM SKC
KPSP 
33nm N 
220226Z 2202/2224 32011KT P6SM SKC FM221800 36012G20KT P6SM SKC
NOTAMs
Click for the latest NOTAMs
NOTAMs are issued by the DoD/FAA and will open in a separate window not controlled by AirNav.

 

 
 

Would you like to see your business listed on this page?

 If your business provides an interesting product or service to pilots, flight crews, aircraft, or users of the Warner Springs Gliderport, you should consider listing it here.  To start the listing process, click on the button below
 
Add a business
 

Other Pages about Warner Springs Gliderport

www.agcsc.org/warner_springs_info.html
 
Update a link
 
Copyright © AirNav, LLC. All rights reserved. Privacy Policy  Contact